This is the latest recevied weather packets stored in our database for station/object JE3XST-13. If no packets are shown the sender has not sent any weather packets the latest 10 day(s).
| Time | Temp. | Humidity | Pressure | Rain* | Wind** | Luminosity | Snow |
|---|---|---|---|---|---|---|---|
| 1787802471 | 32.22° C | 66% | 1007.6 hPa | 0 mm | - | - | - |
| 1787800824 | 32.78° C | 65% | 1008 hPa | 0 mm | - | - | - |
| 1787799023 | 32.22° C | 66% | 1008.4 hPa | 0 mm | - | - | - |
| 1787797343 | 32.22° C | 65% | 1008.6 hPa | 0 mm | - | - | - |
| 1787795545 | 32.22° C | 66% | 1008.6 hPa | 0 mm | - | - | - |
| 1787793743 | 32.22° C | 65% | 1008.7 hPa | 0 mm | - | - | - |
| 1787791774 | 31.67° C | 65% | 1008.3 hPa | 0 mm | - | - | - |
| 1787789973 | 31.67° C | 65% | 1008.2 hPa | 0 mm | - | - | - |
| 1787788173 | 31.67° C | 67% | 1008.3 hPa | 0 mm | - | - | - |
| 1787786374 | 31.11° C | 70% | 1008.1 hPa | 0 mm | - | - | - |
| 1787784573 | 30° C | 74% | 1008 hPa | 0 mm | - | - | - |
| 1787782771 | 29.44° C | 76% | 1008.2 hPa | 0 mm | - | - | - |
| 1787781880 | 29.44° C | 78% | 1008.3 hPa | 0 mm | - | - | - |
| 1787780079 | 28.89° C | 78% | 1008.6 hPa | 0 mm | - | - | - |
| 1787778881 | 28.89° C | 78% | 1008.8 hPa | 0 mm | - | - | - |
| 1787777848 | 28.89° C | 78% | 1008.9 hPa | 0 mm | - | - | - |
| 1787776045 | 28.89° C | 78% | 1008.9 hPa | 0 mm | - | - | - |
| 1787774245 | 28.89° C | 77% | 1008.5 hPa | 0 mm | - | - | - |
| 1787772444 | 29.44° C | 77% | 1008.4 hPa | 0 mm | - | - | - |
| 1787770643 | 29.44° C | 77% | 1008.4 hPa | 0 mm | - | - | - |
| 1787768676 | 29.44° C | 77% | 1008 hPa | 0 mm | - | - | - |
| 1787766877 | 29.44° C | 77% | 1008.1 hPa | 0 mm | - | - | - |
| 1787765078 | 29.44° C | 77% | 1008.2 hPa | 0 mm | - | - | - |
| 1787763278 | 29.44° C | 76% | 1008.2 hPa | 0 mm | - | - | - |
| 1787761476 | 29.44° C | 75% | 1008.5 hPa | 0 mm | - | - | - |
* Rain latest hour (hover to see other rain measurements)
** Current wind speed in m/s (hover to see current wind gust speed)